sensor_id;sensor_type;location;lat;lon;timestamp;temperature;humidity
22235;DHT22;11286;45.596;5.284;2022-10-13T00:01:07;14.50;95.90
22235;DHT22;11286;45.596;5.284;2022-10-13T00:03:33;14.00;99.70
22235;DHT22;11286;45.596;5.284;2022-10-13T00:05:58;13.80;94.20
22235;DHT22;11286;45.596;5.284;2022-10-13T00:08:24;13.90;93.30
22235;DHT22;11286;45.596;5.284;2022-10-13T00:10:51;13.80;96.70
22235;DHT22;11286;45.596;5.284;2022-10-13T00:13:18;13.90;99.30
22235;DHT22;11286;45.596;5.284;2022-10-13T00:15:45;13.80;99.50
22235;DHT22;11286;45.596;5.284;2022-10-13T00:18:11;13.70;99.90
22235;DHT22;11286;45.596;5.284;2022-10-13T00:20:46;13.80;99.90
22235;DHT22;11286;45.596;5.284;2022-10-13T00:23:12;13.70;99.90
22235;DHT22;11286;45.596;5.284;2022-10-13T00:25:42;14.10;99.90
22235;DHT22;11286;45.596;5.284;2022-10-13T00:28:08;14.20;99.90
22235;DHT22;11286;45.596;5.284;2022-10-13T00:30:35;13.80;96.70
22235;DHT22;11286;45.596;5.284;2022-10-13T00:33:01;13.80;96.50
22235;DHT22;11286;45.596;5.284;2022-10-13T00:35:27;13.90;98.30
22235;DHT22;11286;45.596;5.284;2022-10-13T00:37:52;13.80;99.90
22235;DHT22;11286;45.596;5.284;2022-10-13T00:40:18;13.90;97.50
22235;DHT22;11286;45.596;5.284;2022-10-13T00:42:43;14.00;99.90
22235;DHT22;11286;45.596;5.284;2022-10-13T00:45:28;13.80;99.70
22235;DHT22;11286;45.596;5.284;2022-10-13T00:47:56;13.70;99.70
22235;DHT22;11286;45.596;5.284;2022-10-13T00:50:28;13.70;99.90
22235;DHT22;11286;45.596;5.284;2022-10-13T00:52:56;13.70;99.90
22235;DHT22;11286;45.596;5.284;2022-10-13T00:55:28;13.50;99.90
22235;DHT22;11286;45.596;5.284;2022-10-13T00:57:54;13.60;99.90
22235;DHT22;11286;45.596;5.284;2022-10-13T01:00:23;13.60;99.90
22235;DHT22;11286;45.596;5.284;2022-10-13T01:02:50;13.30;99.90
22235;DHT22;11286;45.596;5.284;2022-10-13T01:05:16;13.50;97.10
22235;DHT22;11286;45.596;5.284;2022-10-13T01:07:42;13.60;99.90
22235;DHT22;11286;45.596;5.284;2022-10-13T01:10:13;13.40;99.90
22235;DHT22;11286;45.596;5.284;2022-10-13T01:13:12;13.30;99.90
22235;DHT22;11286;45.596;5.284;2022-10-13T01:15:58;13.50;99.90
22235;DHT22;11286;45.596;5.284;2022-10-13T01:18:45;13.60;99.90
22235;DHT22;11286;45.596;5.284;2022-10-13T01:23:52;13.50;99.90
22235;DHT22;11286;45.596;5.284;2022-10-13T01:34:19;13.40;99.90
22235;DHT22;11286;45.596;5.284;2022-10-13T01:39:31;13.40;99.90
22235;DHT22;11286;45.596;5.284;2022-10-13T01:42:21;13.30;99.90
22235;DHT22;11286;45.596;5.284;2022-10-13T01:44:53;13.30;99.90
22235;DHT22;11286;45.596;5.284;2022-10-13T01:47:24;13.10;99.90
22235;DHT22;11286;45.596;5.284;2022-10-13T01:49:52;13.10;99.90
22235;DHT22;11286;45.596;5.284;2022-10-13T01:52:21;13.20;99.90
22235;DHT22;11286;45.596;5.284;2022-10-13T01:54:50;13.40;99.90
22235;DHT22;11286;45.596;5.284;2022-10-13T01:57:32;13.10;99.90
22235;DHT22;11286;45.596;5.284;2022-10-13T02:00:15;12.90;99.90
22235;DHT22;11286;45.596;5.284;2022-10-13T02:08:18;12.80;99.90
22235;DHT22;11286;45.596;5.284;2022-10-13T02:10:51;13.10;99.90
22235;DHT22;11286;45.596;5.284;2022-10-13T02:13:21;13.00;99.90
22235;DHT22;11286;45.596;5.284;2022-10-13T02:15:51;13.00;99.90
22235;DHT22;11286;45.596;5.284;2022-10-13T02:18:21;13.10;99.90
22235;DHT22;11286;45.596;5.284;2022-10-13T02:20:49;12.90;99.90
22235;DHT22;11286;45.596;5.284;2022-10-13T02:23:16;13.30;99.90
22235;DHT22;11286;45.596;5.284;2022-10-13T02:25:43;13.00;99.90
22235;DHT22;11286;45.596;5.284;2022-10-13T02:28:09;12.70;99.90
22235;DHT22;11286;45.596;5.284;2022-10-13T02:30:38;12.60;99.90
22235;DHT22;11286;45.596;5.284;2022-10-13T02:33:04;12.50;99.90
22235;DHT22;11286;45.596;5.284;2022-10-13T02:35:30;12.50;99.90
22235;DHT22;11286;45.596;5.284;2022-10-13T02:37:57;12.40;99.90
22235;DHT22;11286;45.596;5.284;2022-10-13T02:40:23;12.40;99.90
22235;DHT22;11286;45.596;5.284;2022-10-13T02:42:49;12.40;99.90
22235;DHT22;11286;45.596;5.284;2022-10-13T02:45:16;12.70;99.90
22235;DHT22;11286;45.596;5.284;2022-10-13T02:47:42;12.70;99.90
22235;DHT22;11286;45.596;5.284;2022-10-13T02:50:08;12.50;99.90
22235;DHT22;11286;45.596;5.284;2022-10-13T02:52:33;12.60;99.90
22235;DHT22;11286;45.596;5.284;2022-10-13T02:54:59;12.60;99.90
22235;DHT22;11286;45.596;5.284;2022-10-13T02:57:25;12.70;99.90
22235;DHT22;11286;45.596;5.284;2022-10-13T02:59:50;13.20;99.90
22235;DHT22;11286;45.596;5.284;2022-10-13T03:02:16;12.70;99.90
22235;DHT22;11286;45.596;5.284;2022-10-13T03:04:42;13.10;99.90
22235;DHT22;11286;45.596;5.284;2022-10-13T03:07:08;12.70;99.90
22235;DHT22;11286;45.596;5.284;2022-10-13T03:09:33;13.10;99.90
22235;DHT22;11286;45.596;5.284;2022-10-13T03:11:59;12.60;99.90
22235;DHT22;11286;45.596;5.284;2022-10-13T03:14:25;12.90;99.90
22235;DHT22;11286;45.596;5.284;2022-10-13T03:16:50;12.60;99.90
22235;DHT22;11286;45.596;5.284;2022-10-13T03:19:16;12.90;99.90
22235;DHT22;11286;45.596;5.284;2022-10-13T03:21:41;12.80;99.90
22235;DHT22;11286;45.596;5.284;2022-10-13T03:24:07;12.70;99.90
22235;DHT22;11286;45.596;5.284;2022-10-13T03:26:33;12.60;99.90
22235;DHT22;11286;45.596;5.284;2022-10-13T03:28:59;12.70;99.90
22235;DHT22;11286;45.596;5.284;2022-10-13T03:31:26;12.80;99.90
22235;DHT22;11286;45.596;5.284;2022-10-13T03:33:51;13.10;99.90
22235;DHT22;11286;45.596;5.284;2022-10-13T03:36:17;12.80;99.90
22235;DHT22;11286;45.596;5.284;2022-10-13T03:38:43;12.70;99.90
22235;DHT22;11286;45.596;5.284;2022-10-13T03:41:14;12.70;99.90
22235;DHT22;11286;45.596;5.284;2022-10-13T03:43:42;12.60;99.90
22235;DHT22;11286;45.596;5.284;2022-10-13T03:46:09;12.70;99.90
22235;DHT22;11286;45.596;5.284;2022-10-13T03:48:36;12.70;99.90
22235;DHT22;11286;45.596;5.284;2022-10-13T03:51:06;13.00;99.90
22235;DHT22;11286;45.596;5.284;2022-10-13T03:53:32;13.10;99.90
22235;DHT22;11286;45.596;5.284;2022-10-13T03:55:58;13.00;99.90
22235;DHT22;11286;45.596;5.284;2022-10-13T03:58:24;13.00;99.90
22235;DHT22;11286;45.596;5.284;2022-10-13T04:00:52;13.00;99.90
22235;DHT22;11286;45.596;5.284;2022-10-13T04:03:18;13.10;99.90
22235;DHT22;11286;45.596;5.284;2022-10-13T04:05:44;13.10;99.90
22235;DHT22;11286;45.596;5.284;2022-10-13T04:08:10;13.10;99.90
22235;DHT22;11286;45.596;5.284;2022-10-13T04:10:37;13.10;99.90
22235;DHT22;11286;45.596;5.284;2022-10-13T04:13:02;13.10;99.90
22235;DHT22;11286;45.596;5.284;2022-10-13T04:15:28;13.10;99.90
22235;DHT22;11286;45.596;5.284;2022-10-13T04:17:54;13.10;99.90
22235;DHT22;11286;45.596;5.284;2022-10-13T04:20:19;13.10;99.90
22235;DHT22;11286;45.596;5.284;2022-10-13T04:22:45;13.10;99.90
22235;DHT22;11286;45.596;5.284;2022-10-13T04:25:11;13.40;99.90
22235;DHT22;11286;45.596;5.284;2022-10-13T04:27:36;13.20;99.90
22235;DHT22;11286;45.596;5.284;2022-10-13T04:30:04;13.20;99.90
22235;DHT22;11286;45.596;5.284;2022-10-13T04:32:31;13.20;99.90
22235;DHT22;11286;45.596;5.284;2022-10-13T04:34:56;13.20;99.90
22235;DHT22;11286;45.596;5.284;2022-10-13T04:37:23;13.10;99.90
22235;DHT22;11286;45.596;5.284;2022-10-13T04:39:48;13.50;99.90
22235;DHT22;11286;45.596;5.284;2022-10-13T04:42:14;13.40;99.90
22235;DHT22;11286;45.596;5.284;2022-10-13T04:44:39;13.20;99.90
22235;DHT22;11286;45.596;5.284;2022-10-13T04:47:05;13.10;99.90
22235;DHT22;11286;45.596;5.284;2022-10-13T04:49:31;13.10;99.90
22235;DHT22;11286;45.596;5.284;2022-10-13T04:51:57;13.10;99.90
22235;DHT22;11286;45.596;5.284;2022-10-13T04:54:23;13.20;99.90
22235;DHT22;11286;45.596;5.284;2022-10-13T04:56:48;13.20;99.90
22235;DHT22;11286;45.596;5.284;2022-10-13T04:59:14;13.60;99.90
22235;DHT22;11286;45.596;5.284;2022-10-13T05:01:40;13.60;99.90
22235;DHT22;11286;45.596;5.284;2022-10-13T05:04:06;13.30;99.90
22235;DHT22;11286;45.596;5.284;2022-10-13T05:06:35;13.40;99.90
22235;DHT22;11286;45.596;5.284;2022-10-13T05:09:01;13.30;99.90
22235;DHT22;11286;45.596;5.284;2022-10-13T05:11:27;13.30;99.90
22235;DHT22;11286;45.596;5.284;2022-10-13T05:13:54;13.20;99.90
22235;DHT22;11286;45.596;5.284;2022-10-13T05:16:20;13.10;99.90
22235;DHT22;11286;45.596;5.284;2022-10-13T05:18:47;13.20;99.90
22235;DHT22;11286;45.596;5.284;2022-10-13T05:21:18;13.00;99.90
22235;DHT22;11286;45.596;5.284;2022-10-13T05:23:44;13.20;99.90
22235;DHT22;11286;45.596;5.284;2022-10-13T05:26:12;13.20;99.90
22235;DHT22;11286;45.596;5.284;2022-10-13T05:28:39;13.60;99.90
22235;DHT22;11286;45.596;5.284;2022-10-13T05:31:23;13.40;99.90
22235;DHT22;11286;45.596;5.284;2022-10-13T05:33:50;13.60;99.90
22235;DHT22;11286;45.596;5.284;2022-10-13T05:36:21;13.40;99.90
22235;DHT22;11286;45.596;5.284;2022-10-13T05:38:52;13.40;99.90
22235;DHT22;11286;45.596;5.284;2022-10-13T05:41:19;13.40;99.90
22235;DHT22;11286;45.596;5.284;2022-10-13T05:43:45;13.30;99.90
22235;DHT22;11286;45.596;5.284;2022-10-13T05:46:11;13.20;99.90
22235;DHT22;11286;45.596;5.284;2022-10-13T05:48:37;13.10;99.90
22235;DHT22;11286;45.596;5.284;2022-10-13T05:51:12;13.20;99.90
22235;DHT22;11286;45.596;5.284;2022-10-13T05:53:42;13.30;99.90
22235;DHT22;11286;45.596;5.284;2022-10-13T05:56:13;13.50;99.90
22235;DHT22;11286;45.596;5.284;2022-10-13T05:58:43;13.30;99.90
22235;DHT22;11286;45.596;5.284;2022-10-13T06:01:14;13.30;99.90
22235;DHT22;11286;45.596;5.284;2022-10-13T06:03:41;13.60;99.90
22235;DHT22;11286;45.596;5.284;2022-10-13T06:06:07;13.30;99.90
22235;DHT22;11286;45.596;5.284;2022-10-13T06:08:34;13.30;99.90
22235;DHT22;11286;45.596;5.284;2022-10-13T06:11:01;13.30;99.90
22235;DHT22;11286;45.596;5.284;2022-10-13T06:13:27;13.70;99.90
22235;DHT22;11286;45.596;5.284;2022-10-13T06:15:53;13.90;99.90
22235;DHT22;11286;45.596;5.284;2022-10-13T06:18:18;13.70;99.90
22235;DHT22;11286;45.596;5.284;2022-10-13T06:20:44;14.00;99.90
22235;DHT22;11286;45.596;5.284;2022-10-13T06:23:10;13.80;99.90
22235;DHT22;11286;45.596;5.284;2022-10-13T06:25:35;14.00;99.90
22235;DHT22;11286;45.596;5.284;2022-10-13T06:28:01;14.10;99.90
22235;DHT22;11286;45.596;5.284;2022-10-13T06:30:27;14.10;99.90
22235;DHT22;11286;45.596;5.284;2022-10-13T06:32:53;13.90;99.90
22235;DHT22;11286;45.596;5.284;2022-10-13T06:35:22;14.00;99.90
22235;DHT22;11286;45.596;5.284;2022-10-13T06:37:48;14.00;99.90
22235;DHT22;11286;45.596;5.284;2022-10-13T06:40:14;14.10;99.90
22235;DHT22;11286;45.596;5.284;2022-10-13T06:42:40;14.10;99.90
22235;DHT22;11286;45.596;5.284;2022-10-13T06:45:06;14.20;99.90
22235;DHT22;11286;45.596;5.284;2022-10-13T06:47:32;14.30;99.90
22235;DHT22;11286;45.596;5.284;2022-10-13T06:49:57;14.40;99.90
22235;DHT22;11286;45.596;5.284;2022-10-13T06:52:23;14.50;99.90
22235;DHT22;11286;45.596;5.284;2022-10-13T06:54:48;14.50;99.90
22235;DHT22;11286;45.596;5.284;2022-10-13T06:57:14;14.80;99.90
22235;DHT22;11286;45.596;5.284;2022-10-13T06:59:40;14.50;99.90
22235;DHT22;11286;45.596;5.284;2022-10-13T07:02:05;14.50;99.90
22235;DHT22;11286;45.596;5.284;2022-10-13T07:04:31;14.40;99.90
22235;DHT22;11286;45.596;5.284;2022-10-13T07:06:57;14.50;99.90
22235;DHT22;11286;45.596;5.284;2022-10-13T07:09:22;14.50;99.90
22235;DHT22;11286;45.596;5.284;2022-10-13T07:11:48;14.50;99.90
22235;DHT22;11286;45.596;5.284;2022-10-13T07:14:15;14.50;99.90
22235;DHT22;11286;45.596;5.284;2022-10-13T07:16:40;14.50;99.90
22235;DHT22;11286;45.596;5.284;2022-10-13T07:19:06;14.60;99.90
22235;DHT22;11286;45.596;5.284;2022-10-13T07:21:32;14.70;99.90
22235;DHT22;11286;45.596;5.284;2022-10-13T07:23:57;14.70;99.90
22235;DHT22;11286;45.596;5.284;2022-10-13T07:26:23;14.80;99.90
22235;DHT22;11286;45.596;5.284;2022-10-13T07:28:48;14.80;99.90
22235;DHT22;11286;45.596;5.284;2022-10-13T07:31:17;15.20;99.90
22235;DHT22;11286;45.596;5.284;2022-10-13T07:33:45;14.90;99.90
22235;DHT22;11286;45.596;5.284;2022-10-13T07:36:12;15.30;99.90
22235;DHT22;11286;45.596;5.284;2022-10-13T07:38:38;14.90;99.90
22235;DHT22;11286;45.596;5.284;2022-10-13T07:41:06;14.90;99.90
22235;DHT22;11286;45.596;5.284;2022-10-13T07:43:32;15.10;99.90
22235;DHT22;11286;45.596;5.284;2022-10-13T07:45:58;14.50;99.90
22235;DHT22;11286;45.596;5.284;2022-10-13T07:48:25;14.80;99.90
22235;DHT22;11286;45.596;5.284;2022-10-13T07:50:50;14.80;99.90
22235;DHT22;11286;45.596;5.284;2022-10-13T07:53:16;15.10;99.90
22235;DHT22;11286;45.596;5.284;2022-10-13T07:55:42;14.80;99.90
22235;DHT22;11286;45.596;5.284;2022-10-13T07:58:07;15.00;99.90
22235;DHT22;11286;45.596;5.284;2022-10-13T08:00:33;15.30;99.90
22235;DHT22;11286;45.596;5.284;2022-10-13T08:02:59;15.40;99.90
22235;DHT22;11286;45.596;5.284;2022-10-13T08:05:24;15.30;99.90
22235;DHT22;11286;45.596;5.284;2022-10-13T08:07:50;15.60;99.90
22235;DHT22;11286;45.596;5.284;2022-10-13T08:10:16;15.60;99.90
22235;DHT22;11286;45.596;5.284;2022-10-13T08:12:42;15.60;99.90
22235;DHT22;11286;45.596;5.284;2022-10-13T08:15:08;15.80;99.90
22235;DHT22;11286;45.596;5.284;2022-10-13T08:17:33;15.50;99.90
22235;DHT22;11286;45.596;5.284;2022-10-13T08:19:59;15.90;99.90
22235;DHT22;11286;45.596;5.284;2022-10-13T08:22:25;16.40;99.90
22235;DHT22;11286;45.596;5.284;2022-10-13T08:24:51;17.40;99.90
22235;DHT22;11286;45.596;5.284;2022-10-13T08:27:23;19.10;99.90
22235;DHT22;11286;45.596;5.284;2022-10-13T08:29:49;18.80;99.90
22235;DHT22;11286;45.596;5.284;2022-10-13T08:32:15;18.20;99.90
22235;DHT22;11286;45.596;5.284;2022-10-13T08:34:41;18.80;99.90
22235;DHT22;11286;45.596;5.284;2022-10-13T08:37:17;20.40;99.40
22235;DHT22;11286;45.596;5.284;2022-10-13T08:39:44;22.30;99.90
22235;DHT22;11286;45.596;5.284;2022-10-13T08:42:18;22.90;96.20
22235;DHT22;11286;45.596;5.284;2022-10-13T08:44:52;22.70;98.10
22235;DHT22;11286;45.596;5.284;2022-10-13T08:49:54;23.00;98.20
22235;DHT22;11286;45.596;5.284;2022-10-13T08:52:26;22.10;95.00
22235;DHT22;11286;45.596;5.284;2022-10-13T08:54:54;20.70;96.00
22235;DHT22;11286;45.596;5.284;2022-10-13T08:57:21;19.30;99.90
22235;DHT22;11286;45.596;5.284;2022-10-13T08:59:47;18.60;97.70
22235;DHT22;11286;45.596;5.284;2022-10-13T09:02:22;18.50;98.90
22235;DHT22;11286;45.596;5.284;2022-10-13T09:04:50;18.30;98.80
22235;DHT22;11286;45.596;5.284;2022-10-13T09:07:25;17.70;99.40
22235;DHT22;11286;45.596;5.284;2022-10-13T09:09:54;17.60;99.90
22235;DHT22;11286;45.596;5.284;2022-10-13T09:12:20;17.30;98.90
22235;DHT22;11286;45.596;5.284;2022-10-13T09:15:09;17.00;99.90
22235;DHT22;11286;45.596;5.284;2022-10-13T09:17:38;17.40;99.90
22235;DHT22;11286;45.596;5.284;2022-10-13T09:20:17;17.40;99.90
22235;DHT22;11286;45.596;5.284;2022-10-13T09:22:44;17.70;99.90
22235;DHT22;11286;45.596;5.284;2022-10-13T09:25:24;18.00;99.90
22235;DHT22;11286;45.596;5.284;2022-10-13T09:28:00;17.80;99.60
22235;DHT22;11286;45.596;5.284;2022-10-13T09:30:39;18.10;99.90
22235;DHT22;11286;45.596;5.284;2022-10-13T09:35:38;18.10;99.60
22235;DHT22;11286;45.596;5.284;2022-10-13T09:40:41;18.10;99.90
22235;DHT22;11286;45.596;5.284;2022-10-13T09:45:52;18.50;99.90
22235;DHT22;11286;45.596;5.284;2022-10-13T09:48:22;18.70;99.90
22235;DHT22;11286;45.596;5.284;2022-10-13T09:50:51;18.40;99.90
22235;DHT22;11286;45.596;5.284;2022-10-13T09:55:48;18.50;99.90
22235;DHT22;11286;45.596;5.284;2022-10-13T09:58:31;19.10;98.80
22235;DHT22;11286;45.596;5.284;2022-10-13T10:00:58;19.70;99.90
22235;DHT22;11286;45.596;5.284;2022-10-13T10:03:36;19.80;99.90
22235;DHT22;11286;45.596;5.284;2022-10-13T10:06:05;20.00;99.90
22235;DHT22;11286;45.596;5.284;2022-10-13T10:08:52;20.50;99.90
22235;DHT22;11286;45.596;5.284;2022-10-13T10:11:26;22.50;99.70
22235;DHT22;11286;45.596;5.284;2022-10-13T10:13:52;23.30;95.80
22235;DHT22;11286;45.596;5.284;2022-10-13T10:16:52;21.70;92.70
22235;DHT22;11286;45.596;5.284;2022-10-13T10:25:23;23.50;93.30
22235;DHT22;11286;45.596;5.284;2022-10-13T10:30:48;20.10;96.40
22235;DHT22;11286;45.596;5.284;2022-10-13T10:33:20;20.20;96.50
22235;DHT22;11286;45.596;5.284;2022-10-13T10:41:07;24.00;94.00
22235;DHT22;11286;45.596;5.284;2022-10-13T10:46:24;33.50;82.60
22235;DHT22;11286;45.596;5.284;2022-10-13T10:48:57;35.30;81.50
22235;DHT22;11286;45.596;5.284;2022-10-13T10:51:31;33.30;72.40
22235;DHT22;11286;45.596;5.284;2022-10-13T10:54:15;32.40;72.60
22235;DHT22;11286;45.596;5.284;2022-10-13T10:56:47;33.10;68.60
22235;DHT22;11286;45.596;5.284;2022-10-13T11:02:10;29.10;69.70
22235;DHT22;11286;45.596;5.284;2022-10-13T11:04:42;28.00;68.80
22235;DHT22;11286;45.596;5.284;2022-10-13T11:17:17;23.60;71.50
22235;DHT22;11286;45.596;5.284;2022-10-13T11:19:45;23.80;72.90
22235;DHT22;11286;45.596;5.284;2022-10-13T11:22:17;23.90;73.20
22235;DHT22;11286;45.596;5.284;2022-10-13T11:24:54;23.60;91.50
22235;DHT22;11286;45.596;5.284;2022-10-13T11:30:00;23.20;76.90
22235;DHT22;11286;45.596;5.284;2022-10-13T11:37:43;21.90;77.00
22235;DHT22;11286;45.596;5.284;2022-10-13T11:43:20;22.40;80.30
22235;DHT22;11286;45.596;5.284;2022-10-13T11:48:43;22.50;80.50
22235;DHT22;11286;45.596;5.284;2022-10-13T11:57:31;22.60;80.50
22235;DHT22;11286;45.596;5.284;2022-10-13T11:59:57;22.60;73.00
22235;DHT22;11286;45.596;5.284;2022-10-13T12:02:24;22.00;71.40
22235;DHT22;11286;45.596;5.284;2022-10-13T12:07:34;22.50;77.40
22235;DHT22;11286;45.596;5.284;2022-10-13T12:10:04;22.20;77.50
22235;DHT22;11286;45.596;5.284;2022-10-13T12:12:30;21.40;79.90
22235;DHT22;11286;45.596;5.284;2022-10-13T12:14:56;21.50;71.10
22235;DHT22;11286;45.596;5.284;2022-10-13T12:19:57;22.10;81.80
22235;DHT22;11286;45.596;5.284;2022-10-13T12:22:23;22.10;76.90
22235;DHT22;11286;45.596;5.284;2022-10-13T12:25:04;21.90;77.30
22235;DHT22;11286;45.596;5.284;2022-10-13T12:27:37;21.80;80.60
22235;DHT22;11286;45.596;5.284;2022-10-13T12:30:20;22.00;78.60
22235;DHT22;11286;45.596;5.284;2022-10-13T12:32:51;21.90;78.40
22235;DHT22;11286;45.596;5.284;2022-10-13T12:35:24;22.00;78.80
22235;DHT22;11286;45.596;5.284;2022-10-13T12:37:51;22.30;77.90
22235;DHT22;11286;45.596;5.284;2022-10-13T12:40:18;22.30;78.20
22235;DHT22;11286;45.596;5.284;2022-10-13T12:42:44;22.30;77.50
22235;DHT22;11286;45.596;5.284;2022-10-13T12:45:21;22.30;72.60
22235;DHT22;11286;45.596;5.284;2022-10-13T12:47:50;22.20;79.30
22235;DHT22;11286;45.596;5.284;2022-10-13T12:55:28;21.30;81.60
22235;DHT22;11286;45.596;5.284;2022-10-13T12:57:54;21.50;81.00
22235;DHT22;11286;45.596;5.284;2022-10-13T13:00:20;21.80;79.80
22235;DHT22;11286;45.596;5.284;2022-10-13T13:03:05;22.10;78.90
22235;DHT22;11286;45.596;5.284;2022-10-13T13:05:31;22.40;79.60
22235;DHT22;11286;45.596;5.284;2022-10-13T13:07:58;22.70;79.20
22235;DHT22;11286;45.596;5.284;2022-10-13T13:10:24;22.40;78.10
22235;DHT22;11286;45.596;5.284;2022-10-13T13:12:51;22.50;69.40
22235;DHT22;11286;45.596;5.284;2022-10-13T13:17:48;22.90;81.70
22235;DHT22;11286;45.596;5.284;2022-10-13T13:20:34;22.70;77.10
22235;DHT22;11286;45.596;5.284;2022-10-13T13:23:02;22.70;74.90
22235;DHT22;11286;45.596;5.284;2022-10-13T13:25:27;22.60;72.70
22235;DHT22;11286;45.596;5.284;2022-10-13T13:27:53;22.50;88.00
22235;DHT22;11286;45.596;5.284;2022-10-13T13:30:21;22.30;71.60
22235;DHT22;11286;45.596;5.284;2022-10-13T13:32:47;22.20;78.90
22235;DHT22;11286;45.596;5.284;2022-10-13T13:35:12;21.90;74.40
22235;DHT22;11286;45.596;5.284;2022-10-13T13:37:49;21.70;73.20
22235;DHT22;11286;45.596;5.284;2022-10-13T13:40:26;21.80;82.30
22235;DHT22;11286;45.596;5.284;2022-10-13T13:42:53;21.90;94.60
22235;DHT22;11286;45.596;5.284;2022-10-13T13:45:21;21.70;82.10
22235;DHT22;11286;45.596;5.284;2022-10-13T13:47:47;21.70;81.70
22235;DHT22;11286;45.596;5.284;2022-10-13T13:50:16;21.90;74.20
22235;DHT22;11286;45.596;5.284;2022-10-13T13:52:43;22.20;81.70
22235;DHT22;11286;45.596;5.284;2022-10-13T13:55:09;22.40;73.10
22235;DHT22;11286;45.596;5.284;2022-10-13T13:57:34;22.40;75.00
22235;DHT22;11286;45.596;5.284;2022-10-13T14:00:00;22.30;76.10
22235;DHT22;11286;45.596;5.284;2022-10-13T14:02:25;21.90;74.20
22235;DHT22;11286;45.596;5.284;2022-10-13T14:04:51;21.70;74.40
22235;DHT22;11286;45.596;5.284;2022-10-13T14:07:18;21.60;76.10
22235;DHT22;11286;45.596;5.284;2022-10-13T14:09:44;21.50;77.90
22235;DHT22;11286;45.596;5.284;2022-10-13T14:12:10;21.50;76.50
22235;DHT22;11286;45.596;5.284;2022-10-13T14:14:36;21.50;75.20
22235;DHT22;11286;45.596;5.284;2022-10-13T14:17:03;21.60;81.50
22235;DHT22;11286;45.596;5.284;2022-10-13T14:19:30;21.60;83.10
22235;DHT22;11286;45.596;5.284;2022-10-13T14:21:56;21.40;83.10
22235;DHT22;11286;45.596;5.284;2022-10-13T14:24:23;21.30;83.90
22235;DHT22;11286;45.596;5.284;2022-10-13T14:26:49;21.20;79.80
22235;DHT22;11286;45.596;5.284;2022-10-13T14:29:15;21.30;81.70
22235;DHT22;11286;45.596;5.284;2022-10-13T14:31:41;21.20;78.20
22235;DHT22;11286;45.596;5.284;2022-10-13T14:34:07;21.20;91.90
22235;DHT22;11286;45.596;5.284;2022-10-13T14:36:33;21.10;77.60
22235;DHT22;11286;45.596;5.284;2022-10-13T14:38:58;21.30;75.30
22235;DHT22;11286;45.596;5.284;2022-10-13T14:41:24;21.40;76.10
22235;DHT22;11286;45.596;5.284;2022-10-13T14:43:54;21.40;78.20
22235;DHT22;11286;45.596;5.284;2022-10-13T14:46:20;21.20;86.20
22235;DHT22;11286;45.596;5.284;2022-10-13T14:48:46;21.20;85.00
22235;DHT22;11286;45.596;5.284;2022-10-13T14:51:12;21.10;85.00
22235;DHT22;11286;45.596;5.284;2022-10-13T14:53:41;20.90;76.40
22235;DHT22;11286;45.596;5.284;2022-10-13T14:56:24;21.10;85.70
22235;DHT22;11286;45.596;5.284;2022-10-13T14:58:52;21.30;88.50
22235;DHT22;11286;45.596;5.284;2022-10-13T15:01:18;21.10;85.60
22235;DHT22;11286;45.596;5.284;2022-10-13T15:03:44;21.20;78.00
22235;DHT22;11286;45.596;5.284;2022-10-13T15:06:15;21.20;82.80
22235;DHT22;11286;45.596;5.284;2022-10-13T15:08:42;21.20;85.90
22235;DHT22;11286;45.596;5.284;2022-10-13T15:11:08;21.20;84.80
22235;DHT22;11286;45.596;5.284;2022-10-13T15:13:34;21.20;84.10
22235;DHT22;11286;45.596;5.284;2022-10-13T15:15:59;21.10;77.30
22235;DHT22;11286;45.596;5.284;2022-10-13T15:18:29;21.00;76.40
22235;DHT22;11286;45.596;5.284;2022-10-13T15:20:55;21.00;85.60
22235;DHT22;11286;45.596;5.284;2022-10-13T15:23:21;21.00;84.80
22235;DHT22;11286;45.596;5.284;2022-10-13T15:25:58;21.10;82.70
22235;DHT22;11286;45.596;5.284;2022-10-13T15:28:26;21.00;87.50
22235;DHT22;11286;45.596;5.284;2022-10-13T15:30:52;21.10;85.10
22235;DHT22;11286;45.596;5.284;2022-10-13T15:33:18;21.10;79.40
22235;DHT22;11286;45.596;5.284;2022-10-13T15:35:47;21.00;81.10
22235;DHT22;11286;45.596;5.284;2022-10-13T15:38:14;21.00;87.50
22235;DHT22;11286;45.596;5.284;2022-10-13T15:40:40;21.00;82.90
22235;DHT22;11286;45.596;5.284;2022-10-13T15:43:06;20.90;79.60
22235;DHT22;11286;45.596;5.284;2022-10-13T15:45:32;20.60;87.60
22235;DHT22;11286;45.596;5.284;2022-10-13T15:47:58;20.50;81.30
22235;DHT22;11286;45.596;5.284;2022-10-13T15:50:24;20.50;78.50
22235;DHT22;11286;45.596;5.284;2022-10-13T15:52:50;20.40;82.90
22235;DHT22;11286;45.596;5.284;2022-10-13T15:55:16;20.50;85.20
22235;DHT22;11286;45.596;5.284;2022-10-13T15:57:42;20.40;89.50
22235;DHT22;11286;45.596;5.284;2022-10-13T16:00:11;20.40;86.00
22235;DHT22;11286;45.596;5.284;2022-10-13T16:02:36;20.30;90.50
22235;DHT22;11286;45.596;5.284;2022-10-13T16:05:02;20.20;84.00
22235;DHT22;11286;45.596;5.284;2022-10-13T16:07:33;20.10;86.80
22235;DHT22;11286;45.596;5.284;2022-10-13T16:09:58;20.00;89.10
22235;DHT22;11286;45.596;5.284;2022-10-13T16:12:24;20.00;87.70
22235;DHT22;11286;45.596;5.284;2022-10-13T16:14:51;19.90;91.70
22235;DHT22;11286;45.596;5.284;2022-10-13T16:17:17;19.90;89.70
22235;DHT22;11286;45.596;5.284;2022-10-13T16:19:42;19.90;86.40
22235;DHT22;11286;45.596;5.284;2022-10-13T16:22:08;19.80;86.40
22235;DHT22;11286;45.596;5.284;2022-10-13T16:24:34;19.80;86.20
22235;DHT22;11286;45.596;5.284;2022-10-13T16:27:00;19.60;87.00
22235;DHT22;11286;45.596;5.284;2022-10-13T16:29:26;19.60;90.60
22235;DHT22;11286;45.596;5.284;2022-10-13T16:31:52;19.50;91.50
22235;DHT22;11286;45.596;5.284;2022-10-13T16:34:17;19.50;93.10
22235;DHT22;11286;45.596;5.284;2022-10-13T16:36:43;19.50;91.70
22235;DHT22;11286;45.596;5.284;2022-10-13T16:39:09;19.50;94.90
22235;DHT22;11286;45.596;5.284;2022-10-13T16:41:35;19.50;90.50
22235;DHT22;11286;45.596;5.284;2022-10-13T16:44:01;19.50;92.30
22235;DHT22;11286;45.596;5.284;2022-10-13T16:46:27;19.40;93.60
22235;DHT22;11286;45.596;5.284;2022-10-13T16:48:53;19.30;93.70
22235;DHT22;11286;45.596;5.284;2022-10-13T16:51:20;19.20;93.30
22235;DHT22;11286;45.596;5.284;2022-10-13T16:53:54;19.40;95.20
22235;DHT22;11286;45.596;5.284;2022-10-13T16:56:21;19.10;94.90
22235;DHT22;11286;45.596;5.284;2022-10-13T16:58:48;19.10;94.50
22235;DHT22;11286;45.596;5.284;2022-10-13T17:01:14;19.20;95.20
22235;DHT22;11286;45.596;5.284;2022-10-13T17:03:42;19.10;92.40
22235;DHT22;11286;45.596;5.284;2022-10-13T17:06:08;19.10;94.90
22235;DHT22;11286;45.596;5.284;2022-10-13T17:08:35;19.10;95.60
22235;DHT22;11286;45.596;5.284;2022-10-13T17:11:02;19.00;92.30